Time;durP1;ratioP1;P1;durP2;ratioP2;P2;SDS_P1;SDS_P2;PMS_P1;PMS_P2;Temp;Humidity;BMP_temperature;BMP_pressure;BME280_temperature;BME280_humidity;BME280_pressure;Samples;Min_cycle;Max_cycle;Signal;HPM_P1;HPM_P2
2023/09/29 00:00:32;;;;;;;;;3.00;3.00;;;;;23.46;100.00;101318.53;5077782;27;45517;-75
2023/09/29 00:02:58;;;;;;;;;2.33;2.33;;;;;23.44;100.00;101312.31;5077741;27;46572;-75
2023/09/29 00:05:23;;;;;;;;;5.33;3.67;;;;;23.42;100.00;101310.59;5078729;27;45460;-74
2023/09/29 00:07:52;;;;;;;;;3.33;3.33;;;;;23.39;100.00;101308.03;5076968;27;45501;-73
2023/09/29 00:10:20;;;;;;;;;5.00;3.00;;;;;23.45;100.00;101302.41;5077822;27;45654;-75
2023/09/29 00:12:46;;;;;;;;;5.67;3.00;;;;;23.44;100.00;101309.63;5069352;27;46561;-75
2023/09/29 00:15:12;;;;;;;;;4.00;4.00;;;;;23.45;100.00;101303.28;5065271;27;45452;-74
2023/09/29 00:17:37;;;;;;;;;3.00;3.00;;;;;23.45;100.00;101300.59;5070305;28;45481;-73
2023/09/29 00:20:23;;;;;;;;;3.00;3.00;;;;;23.40;100.00;101299.88;5076406;27;45188;-74
2023/09/29 00:22:49;;;;;;;;;9.00;3.00;;;;;23.37;100.00;101291.88;5074954;27;46504;-73
2023/09/29 00:25:14;;;;;;;;;3.00;3.00;;;;;23.39;100.00;101294.56;5076386;27;45400;-74
2023/09/29 00:27:40;;;;;;;;;6.33;5.00;;;;;23.38;100.00;101303.53;5078994;27;63778;-74
2023/09/29 00:30:06;;;;;;;;;3.00;3.00;;;;;23.37;100.00;101299.97;5072104;27;56789;-76
2023/09/29 00:32:31;;;;;;;;;4.33;2.67;;;;;23.38;100.00;101295.47;5081828;27;46663;-73
2023/09/29 00:34:57;;;;;;;;;4.00;4.00;;;;;23.39;100.00;101294.56;5074828;27;45469;-74
2023/09/29 00:37:23;;;;;;;;;4.00;4.00;;;;;23.39;100.00;101292.72;5077218;27;45500;-75
2023/09/29 00:39:48;;;;;;;;;3.67;3.67;;;;;23.39;100.00;101291.84;5077332;27;45490;-74
2023/09/29 00:42:13;;;;;;;;;3.00;3.00;;;;;23.36;100.00;101303.59;5076168;27;45326;-75
2023/09/29 00:44:39;;;;;;;;;5.33;3.00;;;;;23.39;100.00;101305.34;5077097;27;45361;-73
2023/09/29 00:47:05;;;;;;;;;4.33;3.67;;;;;23.42;100.00;101300.69;5073031;27;45354;-75
2023/09/29 00:49:30;;;;;;;;;3.00;3.00;;;;;23.40;100.00;101299.88;5076834;28;45521;-75
2023/09/29 00:51:59;;;;;;;;;3.00;3.00;;;;;23.40;100.00;101294.50;5076879;27;45338;-73
2023/09/29 00:54:27;;;;;;;;;4.00;4.00;;;;;23.44;100.00;101281.78;5077264;28;45373;-73
2023/09/29 00:56:52;;;;;;;;;3.67;2.33;;;;;23.45;100.00;101268.25;5063659;27;45323;-74
2023/09/29 00:59:18;;;;;;;;;4.33;4.00;;;;;23.45;100.00;101265.56;5067581;27;61914;-73
2023/09/29 01:01:44;;;;;;;;;4.33;4.33;;;;;23.44;100.00;101266.50;5070554;27;46651;-73
2023/09/29 01:04:10;;;;;;;;;3.00;3.00;;;;;23.44;100.00;101252.16;5070574;27;64279;-73
2023/09/29 01:06:35;;;;;;;;;5.33;4.00;;;;;23.45;100.00;101249.38;5077030;27;45243;-74
2023/09/29 01:09:01;;;;;;;;;4.00;4.00;;;;;23.46;100.00;101251.13;5076693;27;46391;-75
2023/09/29 01:11:26;;;;;;;;;4.00;4.00;;;;;23.48;100.00;101253.78;5076976;28;45768;-75
2023/09/29 01:13:51;;;;;;;;;3.00;3.00;;;;;23.46;100.00;101243.06;5076398;27;45272;-74
2023/09/29 01:16:17;;;;;;;;;6.33;4.33;;;;;23.48;100.00;101249.25;5074116;27;63475;-77
2023/09/29 01:18:43;;;;;;;;;5.00;3.33;;;;;23.48;100.00;101253.78;5077309;27;45621;-73
2023/09/29 01:21:08;;;;;;;;;3.00;3.00;;;;;23.47;100.00;101257.41;5072168;27;71187;-74
2023/09/29 01:23:34;;;;;;;;;4.00;4.00;;;;;23.46;100.00;101243.06;5073987;27;45341;-74
2023/09/29 01:26:02;;;;;;;;;2.67;2.67;;;;;23.47;100.00;101247.50;5076682;28;45455;-75
2023/09/29 01:28:27;;;;;;;;;3.00;3.00;;;;;23.46;100.00;101248.44;5076598;27;45340;-74
2023/09/29 01:30:53;;;;;;;;;5.00;3.00;;;;;23.47;100.00;101249.31;5076467;27;45685;-74
2023/09/29 01:33:21;;;;;;;;;4.33;3.00;;;;;23.42;100.00;101236.00;5075526;27;45307;-75
2023/09/29 01:35:47;;;;;;;;;5.00;4.00;;;;;23.42;100.00;101244.09;5073748;27;45464;-75
2023/09/29 01:38:12;;;;;;;;;5.00;3.33;;;;;23.35;100.00;101247.94;5075982;27;45432;-74
2023/09/29 01:40:37;;;;;;;;;4.33;4.00;;;;;23.30;100.00;101243.66;5080164;28;46337;-74
2023/09/29 01:43:03;;;;;;;;;5.00;3.00;;;;;23.25;100.00;101243.81;5082833;27;66071;-73
2023/09/29 01:45:32;;;;;;;;;3.00;3.00;;;;;23.17;100.00;101246.78;5080202;27;45329;-73
2023/09/29 01:47:57;;;;;;;;;2.00;2.00;;;;;23.12;100.00;101261.34;5079770;27;45406;-73
2023/09/29 01:50:23;;;;;;;;;3.33;3.33;;;;;23.09;100.00;101253.38;5078992;27;45759;-75
2023/09/29 01:52:49;;;;;;;;;3.00;3.00;;;;;23.07;100.00;101257.94;5079786;27;68595;-74
2023/09/29 01:55:16;;;;;;;;;4.00;4.00;;;;;23.05;100.00;101252.59;5079779;27;45266;-74
2023/09/29 01:57:42;;;;;;;;;2.67;2.67;;;;;23.06;100.00;101253.47;5076062;27;47221;-74
2023/09/29 02:00:14;;;;;;;;;4.00;4.00;;;;;23.06;100.00;101257.03;5076075;28;47314;-75
2023/09/29 02:02:40;;;;;;;;;5.00;3.33;;;;;23.04;100.00;101256.22;5079529;27;45529;-73
2023/09/29 02:05:07;;;;;;;;;4.00;2.00;;;;;23.03;100.00;101249.06;5077098;28;45224;-74
2023/09/29 02:07:32;;;;;;;;;2.00;2.00;;;;;23.05;100.00;101246.31;5081862;27;45408;-74
2023/09/29 02:09:58;;;;;;;;;2.00;2.00;;;;;23.05;100.00;101251.69;5079438;28;47513;-75
2023/09/29 02:12:23;;;;;;;;;3.33;3.00;;;;;23.04;100.00;101258.03;5078123;27;68147;-74
2023/09/29 02:14:49;;;;;;;;;2.00;2.00;;;;;23.02;100.00;101254.53;5086895;27;65379;-75
2023/09/29 02:17:15;;;;;;;;;2.00;2.00;;;;;23.00;100.00;101258.13;5079920;28;45358;-75
2023/09/29 02:19:40;;;;;;;;;1.33;1.33;;;;;23.00;100.00;101268.88;5086992;27;67497;-74
2023/09/29 02:22:06;;;;;;;;;3.00;2.00;;;;;23.04;100.00;101260.72;5070175;27;45321;-75
2023/09/29 02:24:33;;;;;;;;;3.33;1.67;;;;;23.05;100.00;101263.34;5078841;27;45465;-73
2023/09/29 02:26:58;;;;;;;;;6.00;3.00;;;;;23.04;100.00;101260.72;5079570;28;45354;-74
2023/09/29 02:29:25;;;;;;;;;3.00;2.00;;;;;23.05;100.00;101257.97;5078951;27;45710;-74
2023/09/29 02:31:51;;;;;;;;;3.00;2.00;;;;;23.06;100.00;101258.84;5077355;27;45497;-74
2023/09/29 02:34:17;;;;;;;;;1.33;1.33;;;;;23.03;100.00;101253.59;5079052;28;45429;-75
2023/09/29 02:36:42;;;;;;;;;2.00;2.00;;;;;22.99;100.00;101260.88;5078216;27;45564;-74
2023/09/29 02:39:08;;;;;;;;;2.00;1.33;;;;;22.94;100.00;101255.63;5071274;27;69749;-73
2023/09/29 02:41:34;;;;;;;;;2.00;2.00;;;;;22.92;100.00;101249.44;5072552;27;45308;-74
2023/09/29 02:44:01;;;;;;;;;1.33;1.33;;;;;22.93;100.00;101244.94;5072287;27;45387;-75
2023/09/29 02:46:26;;;;;;;;;2.33;2.33;;;;;22.91;100.00;101239.59;5075092;27;45422;-75
2023/09/29 02:48:52;;;;;;;;;2.33;2.00;;;;;22.90;100.00;101231.53;5073318;27;65727;-75
2023/09/29 02:51:18;;;;;;;;;2.00;2.00;;;;;22.87;100.00;101234.31;5077731;27;66810;-74
2023/09/29 02:53:43;;;;;;;;;2.00;2.00;;;;;22.84;100.00;101243.38;5069037;27;45354;-75
2023/09/29 02:56:11;;;;;;;;;2.33;1.00;;;;;22.80;100.00;101249.81;5079054;27;45393;-75
2023/09/29 02:58:41;;;;;;;;;3.67;2.00;;;;;22.80;100.00;101259.69;5069546;27;47620;-75
2023/09/29 03:01:11;;;;;;;;;2.00;1.00;;;;;22.74;100.00;101256.28;5078430;27;45476;-73
2023/09/29 03:03:46;;;;;;;;;2.00;1.00;;;;;22.72;100.00;101241.97;5075201;27;45522;-75
2023/09/29 03:06:16;;;;;;;;;2.67;2.00;;;;;22.71;100.00;101237.53;5077206;27;45375;-75
2023/09/29 03:08:41;;;;;;;;;2.00;2.00;;;;;22.71;100.00;101244.72;5078582;27;46441;-75
2023/09/29 03:11:09;;;;;;;;;1.00;1.00;;;;;22.66;100.00;101225.16;5078281;27;45464;-74
2023/09/29 03:13:34;;;;;;;;;3.33;2.33;;;;;22.62;100.00;101231.56;5073638;27;45407;-75
2023/09/29 03:16:01;;;;;;;;;3.67;1.33;;;;;22.62;100.00;101227.06;5077949;27;45308;-74
2023/09/29 03:18:26;;;;;;;;;2.33;2.33;;;;;22.59;100.00;101229.88;5076947;27;45557;-75
2023/09/29 03:20:52;;;;;;;;;2.33;1.00;;;;;22.57;100.00;101220.94;5075412;28;68982;-75
2023/09/29 03:23:17;;;;;;;;;3.00;1.00;;;;;22.53;100.00;101229.16;5086650;27;45381;-75
2023/09/29 03:25:43;;;;;;;;;4.00;2.00;;;;;22.54;100.00;101242.59;5078845;28;45438;-74
2023/09/29 03:28:10;;;;;;;;;3.67;2.00;;;;;22.50;100.00;101240.91;5074452;27;47363;-75
2023/09/29 03:30:35;;;;;;;;;2.00;2.00;;;;;22.49;100.00;101240.03;5076076;28;45478;-75
2023/09/29 03:33:00;;;;;;;;;2.00;2.00;;;;;22.44;100.00;101243.81;5065584;27;62409;-73
2023/09/29 03:35:26;;;;;;;;;3.33;2.00;;;;;22.45;100.00;101259.00;5076446;27;45419;-75
2023/09/29 03:37:51;;;;;;;;;2.00;2.00;;;;;22.41;100.00;101251.97;5076941;27;47306;-74
2023/09/29 03:40:18;;;;;;;;;3.00;2.33;;;;;22.39;100.00;101252.00;5076591;27;45436;-74
2023/09/29 03:42:43;;;;;;;;;3.00;2.00;;;;;22.34;100.00;101250.41;5072883;27;45405;-75
2023/09/29 03:45:09;;;;;;;;;3.00;1.00;;;;;22.36;100.00;101251.22;5076845;28;45480;-75
2023/09/29 03:47:35;;;;;;;;;2.00;2.00;;;;;22.32;100.00;101253.16;5077002;27;45561;-75
2023/09/29 03:50:01;;;;;;;;;3.00;1.00;;;;;22.30;100.00;101260.38;5077834;27;45218;-73
2023/09/29 03:52:27;;;;;;;;;4.00;1.00;;;;;22.28;100.00;101270.31;5076783;27;45238;-72
2023/09/29 03:54:52;;;;;;;;;2.00;2.00;;;;;22.29;100.00;101266.69;5078049;28;47133;-72
2023/09/29 03:57:17;;;;;;;;;1.00;1.00;;;;;22.23;100.00;101278.50;5076200;27;68420;-75
2023/09/29 03:59:44;;;;;;;;;1.67;1.67;;;;;22.20;100.00;101275.91;5075636;27;65528;-74
2023/09/29 04:02:09;;;;;;;;;3.33;2.33;;;;;22.18;100.00;101276.88;5077622;28;45445;-74
2023/09/29 04:04:34;;;;;;;;;3.33;2.67;;;;;22.15;100.00;101293.09;5074349;27;45204;-75
2023/09/29 04:07:00;;;;;;;;;1.33;1.33;;;;;22.12;100.00;101310.22;5073854;28;64396;-75
2023/09/29 04:09:25;;;;;;;;;0.00;0.00;;;;;22.09;100.00;101323.72;5076050;27;66244;-73
2023/09/29 04:11:51;;;;;;;;;3.67;2.00;;;;;22.08;100.00;101327.34;5076644;28;45599;-74
2023/09/29 04:14:16;;;;;;;;;2.33;2.33;;;;;22.07;100.00;101330.09;5076745;27;60168;-73
2023/09/29 04:16:41;;;;;;;;;3.67;3.00;;;;;22.09;100.00;101341.66;5076683;27;67266;-75
2023/09/29 04:19:07;;;;;;;;;3.00;1.67;;;;;22.12;100.00;101344.31;5075804;27;68209;-73
2023/09/29 04:21:32;;;;;;;;;4.00;2.00;;;;;22.16;100.00;101337.94;5071559;28;45434;-75
2023/09/29 04:23:58;;;;;;;;;4.67;3.00;;;;;22.16;100.00;101344.19;5074526;27;61816;-73
2023/09/29 04:26:23;;;;;;;;;2.00;2.00;;;;;22.20;100.00;101335.06;5077201;28;46391;-74
2023/09/29 04:31:24;;;;;;;;;2.00;2.00;;;;;22.23;100.00;101351.16;4955919;26;45368;-73
2023/09/29 04:33:49;;;;;;;;;0.67;0.33;;;;;22.27;100.00;101354.63;5016385;28;45450;-72
2023/09/29 04:36:14;;;;;;;;;4.00;2.00;;;;;22.23;100.00;101353.84;5004128;28;70503;-73
2023/09/29 04:38:41;;;;;;;;;2.33;2.00;;;;;22.25;100.00;101356.47;5015712;28;67232;-74
2023/09/29 04:41:07;;;;;;;;;2.67;2.00;;;;;22.30;100.00;101348.28;5004314;28;45444;-73
2023/09/29 04:43:32;;;;;;;;;4.00;2.67;;;;;22.30;100.00;101341.06;5003260;28;45590;-72
2023/09/29 04:45:57;;;;;;;;;5.00;2.67;;;;;22.31;100.00;101347.34;5015519;28;45372;-73
2023/09/29 04:48:23;;;;;;;;;2.67;2.00;;;;;22.35;100.00;101338.25;5012680;28;45961;-72
2023/09/29 04:50:49;;;;;;;;;6.67;3.00;;;;;22.35;100.00;101355.28;5016882;28;45196;-73
2023/09/29 04:53:14;;;;;;;;;3.00;3.00;;;;;22.33;100.00;101350.88;5008179;28;45479;-73
2023/09/29 04:55:40;;;;;;;;;4.33;3.00;;;;;22.32;100.00;101339.25;5014020;28;66982;-73
2023/09/29 04:58:05;;;;;;;;;3.00;3.00;;;;;22.36;100.00;101356.16;5008198;28;65450;-71
2023/09/29 05:00:30;;;;;;;;;4.00;2.67;;;;;22.33;100.00;101351.75;5015636;28;45403;-72
2023/09/29 05:02:56;;;;;;;;;2.00;2.00;;;;;22.33;100.00;101351.75;5010009;28;58790;-72
2023/09/29 05:05:21;;;;;;;;;5.67;3.67;;;;;22.34;100.00;101337.38;5010030;28;72305;-72
2023/09/29 05:07:46;;;;;;;;;4.00;2.67;;;;;22.35;100.00;101333.75;5006612;28;45468;-74
2023/09/29 05:10:15;;;;;;;;;4.33;3.00;;;;;22.32;100.00;101327.56;4990004;28;50392;-73
2023/09/29 05:12:41;;;;;;;;;6.33;3.33;;;;;22.32;100.00;101343.72;5006369;28;45494;-75
2023/09/29 05:15:08;;;;;;;;;4.67;3.67;;;;;22.30;100.00;101357.22;5013402;28;46445;-75
2023/09/29 05:17:34;;;;;;;;;4.00;4.00;;;;;22.28;100.00;101353.72;5007076;28;45570;-73
2023/09/29 05:19:59;;;;;;;;;6.00;4.00;;;;;22.33;100.00;101356.25;5006582;28;45335;-74
2023/09/29 05:22:25;;;;;;;;;5.67;3.00;;;;;22.31;100.00;101368.88;5010604;28;62819;-73
2023/09/29 05:24:50;;;;;;;;;4.00;2.00;;;;;22.32;100.00;101368.84;5014700;28;69761;-75
2023/09/29 05:27:15;;;;;;;;;6.67;2.33;;;;;22.36;100.00;101369.63;5004228;28;45375;-73
2023/09/29 05:29:41;;;;;;;;;3.33;3.33;;;;;22.31;100.00;101371.56;5006669;28;45393;-73
2023/09/29 05:32:06;;;;;;;;;3.00;3.00;;;;;22.29;100.00;101371.59;5010006;28;45253;-75
2023/09/29 05:34:32;;;;;;;;;8.00;4.00;;;;;22.32;100.00;101363.47;5010114;28;71065;-76
2023/09/29 05:36:57;;;;;;;;;9.33;3.67;;;;;22.29;100.00;101363.53;5005110;28;45511;-76
2023/09/29 05:39:23;;;;;;;;;6.67;3.00;;;;;22.30;100.00;101373.38;5004722;28;45732;-74
2023/09/29 05:41:48;;;;;;;;;6.00;3.67;;;;;22.23;100.00;101385.25;5012621;28;45526;-76
2023/09/29 05:44:15;;;;;;;;;5.67;4.00;;;;;22.23;100.00;101382.53;5009953;28;46448;-76
2023/09/29 05:46:40;;;;;;;;;9.67;5.67;;;;;22.24;100.00;101392.38;5003428;28;45453;-76
2023/09/29 05:49:06;;;;;;;;;8.00;5.00;;;;;22.22;100.00;101388.88;5016387;28;45636;-74
2023/09/29 05:51:31;;;;;;;;;7.00;5.00;;;;;22.23;100.00;101386.13;5017714;28;45372;-73
2023/09/29 05:53:58;;;;;;;;;6.00;5.33;;;;;22.22;100.00;101389.75;5014027;28;47264;-74
2023/09/29 05:56:23;;;;;;;;;11.67;5.00;;;;;22.27;100.00;101384.22;5012493;28;45348;-72
2023/09/29 05:58:49;;;;;;;;;10.00;4.00;;;;;22.29;100.00;101386.88;5009728;28;45439;-72
2023/09/29 06:01:15;;;;;;;;;8.67;3.33;;;;;22.33;100.00;101400.19;5013451;28;45199;-72
2023/09/29 06:03:40;;;;;;;;;13.33;6.67;;;;;22.31;100.00;101402.03;5013352;28;47409;-70
2023/09/29 06:06:08;;;;;;;;;9.67;5.33;;;;;22.37;100.00;101407.25;5011634;28;67765;-71
2023/09/29 06:08:35;;;;;;;;;6.00;5.00;;;;;22.40;100.00;101399.09;5011639;28;45398;-73
2023/09/29 06:11:00;;;;;;;;;11.00;5.00;;;;;22.41;100.00;101408.91;5005204;28;45465;-73
2023/09/29 06:13:25;;;;;;;;;9.00;7.00;;;;;22.42;100.00;101397.22;5011909;28;63448;-76
2023/09/29 06:15:50;;;;;;;;;5.00;5.00;;;;;22.45;100.00;101409.72;5008215;28;67688;-76
2023/09/29 06:18:16;;;;;;;;;8.33;5.33;;;;;22.47;100.00;101406.03;5013566;28;59708;-75
2023/09/29 06:20:41;;;;;;;;;7.00;5.33;;;;;22.49;100.00;101412.28;5014597;28;60941;-75
2023/09/29 06:23:07;;;;;;;;;10.33;4.00;;;;;22.47;100.00;101410.53;5011856;28;69148;-73
2023/09/29 06:25:33;;;;;;;;;7.67;5.33;;;;;22.45;100.00;101402.53;5008224;28;45442;-77
2023/09/29 06:27:58;;;;;;;;;12.67;5.00;;;;;22.45;100.00;101410.59;5011942;28;45213;-76
2023/09/29 06:30:24;;;;;;;;;11.33;4.67;;;;;22.46;100.00;101414.16;5011807;28;45410;-74
2023/09/29 06:32:49;;;;;;;;;7.00;7.00;;;;;22.51;100.00;101414.91;5017651;28;47204;-73
2023/09/29 06:35:15;;;;;;;;;7.00;4.00;;;;;22.54;100.00;101425.59;5017798;28;68575;-75
2023/09/29 06:37:41;;;;;;;;;13.00;5.00;;;;;22.57;100.00;101430.88;5016875;28;45240;-76
2023/09/29 06:40:10;;;;;;;;;13.67;3.67;;;;;22.56;100.00;101431.81;5015662;28;45460;-74
2023/09/29 06:42:37;;;;;;;;;7.00;5.00;;;;;22.55;100.00;101448.91;5012659;28;46499;-74
2023/09/29 06:45:04;;;;;;;;;11.00;6.33;;;;;22.55;100.00;101451.59;5010602;28;45158;-75
2023/09/29 06:47:29;;;;;;;;;7.33;4.67;;;;;22.55;100.00;101456.09;5014194;28;45428;-74
2023/09/29 06:49:55;;;;;;;;;8.33;3.00;;;;;22.57;100.00;101456.91;5006896;28;60445;-74
2023/09/29 06:52:21;;;;;;;;;8.00;5.00;;;;;22.51;100.00;101466.06;5007229;28;47479;-73
2023/09/29 06:54:46;;;;;;;;;7.00;5.00;;;;;22.51;100.00;101466.06;5004246;28;68650;-73
2023/09/29 06:57:11;;;;;;;;;12.33;5.33;;;;;22.46;100.00;101466.19;5009973;28;45467;-72
2023/09/29 06:59:37;;;;;;;;;7.00;4.67;;;;;22.44;100.00;101478.81;5007451;28;58463;-72
2023/09/29 07:02:02;;;;;;;;;7.33;3.00;;;;;22.45;100.00;101485.94;5005514;28;46623;-72
2023/09/29 07:04:27;;;;;;;;;7.33;4.33;;;;;22.46;100.00;101493.09;5016016;28;66660;-72
2023/09/29 07:06:53;;;;;;;;;6.00;3.67;;;;;22.46;100.00;101494.91;5016772;28;64070;-73
2023/09/29 07:09:18;;;;;;;;;10.33;5.00;;;;;22.49;100.00;101509.16;5018089;28;60021;-73
2023/09/29 07:11:44;;;;;;;;;10.67;5.00;;;;;22.58;100.00;101517.91;5014027;28;69857;-73
2023/09/29 07:14:09;;;;;;;;;7.00;4.67;;;;;22.63;100.00;101526.72;5024944;28;45309;-75
2023/09/29 07:16:35;;;;;;;;;7.00;3.00;;;;;22.63;100.00;101521.34;5015924;28;48788;-75
2023/09/29 07:19:00;;;;;;;;;3.33;3.00;;;;;22.69;100.00;101522.06;5014241;28;61418;-73
2023/09/29 07:21:26;;;;;;;;;5.67;3.00;;;;;22.72;100.00;101523.78;5022414;28;48307;-73
2023/09/29 07:23:51;;;;;;;;;6.67;2.00;;;;;22.71;100.00;101530.09;5008491;28;45380;-73
2023/09/29 07:26:17;;;;;;;;;9.33;3.33;;;;;22.72;100.00;101529.16;5007474;28;45498;-73
2023/09/29 07:28:42;;;;;;;;;8.67;3.67;;;;;22.76;100.00;101536.25;5016576;28;46290;-74
2023/09/29 07:31:07;;;;;;;;;5.33;3.33;;;;;22.86;100.00;101547.63;5015634;28;45831;-75
2023/09/29 07:33:33;;;;;;;;;10.00;3.00;;;;;22.89;100.00;101548.44;5017361;28;61191;-74
2023/09/29 07:35:58;;;;;;;;;8.33;4.00;;;;;22.92;100.00;101551.06;5010045;28;63956;-75
2023/09/29 07:38:23;;;;;;;;;7.00;3.33;;;;;22.94;100.00;101565.34;5021723;28;58420;-74
2023/09/29 07:40:49;;;;;;;;;4.33;3.00;;;;;22.86;100.00;101563.78;5008144;28;62451;-73
2023/09/29 07:43:15;;;;;;;;;5.00;2.00;;;;;22.79;100.00;101581.03;5017374;28;45264;-72
2023/09/29 07:45:40;;;;;;;;;5.67;3.00;;;;;22.70;100.00;101595.66;5008716;28;45341;-73
2023/09/29 07:48:06;;;;;;;;;7.33;3.00;;;;;22.61;100.00;101607.53;5008810;28;45231;-75
2023/09/29 07:50:31;;;;;;;;;5.33;3.00;;;;;22.57;100.00;101604.97;5004058;28;46542;-72
2023/09/29 07:52:56;;;;;;;;;4.67;3.00;;;;;22.61;100.00;101612.03;5000554;28;49680;-73
2023/09/29 07:55:22;;;;;;;;;2.00;0.67;;;;;22.63;100.00;101597.59;5000906;28;47235;-75
2023/09/29 07:57:47;;;;;;;;;2.00;2.00;;;;;22.68;100.00;101608.25;5009033;28;45571;-72
2023/09/29 08:00:15;;;;;;;;;5.00;1.00;;;;;22.70;100.00;101626.16;5015937;28;68980;-73
2023/09/29 08:02:41;;;;;;;;;0.33;0.00;;;;;22.69;100.00;101616.31;5032322;28;45668;-73
2023/09/29 08:05:08;;;;;;;;;4.33;1.67;;;;;22.69;100.00;101623.47;5010285;28;45366;-72
2023/09/29 08:07:34;;;;;;;;;4.00;1.67;;;;;22.69;100.00;101626.16;5007290;28;45250;-72
2023/09/29 08:09:59;;;;;;;;;7.33;2.00;;;;;22.64;100.00;101628.13;5002010;28;45358;-73
2023/09/29 08:12:24;;;;;;;;;1.00;1.00;;;;;22.67;100.00;101636.09;5004467;28;70056;-73
2023/09/29 08:14:50;;;;;;;;;5.67;3.00;;;;;22.69;100.00;101647.69;5008766;28;45380;-73
2023/09/29 08:17:15;;;;;;;;;1.00;1.00;;;;;22.72;100.00;101647.63;5006022;28;45577;-73
2023/09/29 08:19:41;;;;;;;;;3.00;0.00;;;;;22.70;100.00;101652.19;5005624;28;61117;-74
2023/09/29 08:22:06;;;;;;;;;0.00;0.00;;;;;22.67;100.00;101671.09;5014457;28;66276;-74
2023/09/29 08:24:32;;;;;;;;;1.00;1.00;;;;;22.64;100.00;101668.50;5008259;28;63721;-73
2023/09/29 08:26:58;;;;;;;;;2.00;0.00;;;;;22.60;100.00;101672.19;5009542;28;45423;-73
2023/09/29 08:29:24;;;;;;;;;1.33;1.00;;;;;22.49;100.00;101669.78;5015649;28;46630;-74
2023/09/29 08:31:49;;;;;;;;;4.00;3.00;;;;;22.47;100.00;101696.69;5005083;28;45325;-73
2023/09/29 08:34:14;;;;;;;;;1.00;1.00;;;;;22.40;100.00;101696.91;4999900;28;61999;-75
2023/09/29 08:36:40;;;;;;;;;1.33;1.00;;;;;22.33;100.00;101700.69;5004934;28;45376;-72
2023/09/29 08:39:06;;;;;;;;;7.00;7.00;;;;;22.28;100.00;101703.47;5012427;28;70140;-73
2023/09/29 08:41:34;;;;;;;;;18.00;14.67;;;;;22.24;100.00;101709.84;5007159;28;65453;-75
2023/09/29 08:44:01;;;;;;;;;40.67;31.00;;;;;22.29;100.00;101717.81;5008502;28;45495;-75
2023/09/29 08:46:27;;;;;;;;;24.00;18.33;;;;;22.31;100.00;101722.22;5004260;28;45629;-73
2023/09/29 08:48:54;;;;;;;;;12.67;9.33;;;;;22.36;100.00;101724.81;5003813;28;45606;-73
2023/09/29 08:51:20;;;;;;;;;2.67;2.67;;;;;22.37;100.00;101727.47;5014467;28;45350;-74
2023/09/29 08:53:45;;;;;;;;;5.00;5.00;;;;;22.40;100.00;101737.28;5011770;28;63689;-72
2023/09/29 08:56:12;;;;;;;;;2.67;0.00;;;;;22.45;100.00;101733.53;5014915;28;61773;-73
2023/09/29 08:58:39;;;;;;;;;2.00;0.00;;;;;22.47;100.00;101725.44;5010492;28;46742;-74
2023/09/29 09:01:05;;;;;;;;;1.00;0.00;;;;;22.43;100.00;101729.13;5004239;28;45613;-72
2023/09/29 09:03:30;;;;;;;;;1.00;0.00;;;;;22.40;100.00;101730.06;5014370;28;45672;-72
2023/09/29 09:05:56;;;;;;;;;0.00;0.00;;;;;22.37;100.00;101721.19;5013261;28;45330;-73
2023/09/29 09:08:23;;;;;;;;;0.00;0.00;;;;;22.45;100.00;101728.16;5010128;28;45351;-75
2023/09/29 09:10:50;;;;;;;;;0.00;0.00;;;;;22.54;100.00;101732.44;5006161;28;45360;-73
2023/09/29 09:13:20;;;;;;;;;0.00;0.00;;;;;22.64;100.00;101728.63;5013734;28;45546;-73
2023/09/29 09:15:58;;;;;;;;;0.00;0.00;;;;;22.79;100.00;101747.97;5015739;28;45952;-75
2023/09/29 09:18:27;;;;;;;;;0.00;0.00;;;;;22.80;100.00;101738.97;5013772;28;45876;-72
2023/09/29 09:20:55;;;;;;;;;0.00;0.00;;;;;22.84;100.00;101752.31;5012451;28;45287;-73
2023/09/29 09:23:21;;;;;;;;;1.00;0.00;;;;;22.84;100.00;101757.72;5007738;28;45349;-73
2023/09/29 09:25:46;;;;;;;;;1.00;0.00;;;;;22.85;100.00;101770.28;5002057;28;45348;-75
2023/09/29 09:28:18;;;;;;;;;0.00;0.00;;;;;22.87;100.00;101779.19;5004440;28;45460;-72
2023/09/29 09:30:46;;;;;;;;;2.00;0.00;;;;;22.84;100.00;101800.81;4999555;28;45349;-73
2023/09/29 09:33:21;;;;;;;;;0.00;0.00;;;;;22.77;100.00;101823.44;5007191;28;45502;-74
2023/09/29 09:35:47;;;;;;;;;0.00;0.00;;;;;;;;5009124;28;45419;-72
2023/09/29 09:38:12;;;;;;;;;0.00;0.00;;;;;22.53;100.00;101834.75;5015050;28;45493;-75
2023/09/29 09:40:38;;;;;;;;;0.67;0.00;;;;;22.44;100.00;101846.63;5015366;28;45390;-74
2023/09/29 09:43:06;;;;;;;;;0.00;0.00;;;;;22.37;100.00;101850.34;5010918;28;45360;-73
2023/09/29 09:45:40;;;;;;;;;2.00;1.00;;;;;22.30;100.00;101848.72;5002309;28;45422;-75
2023/09/29 09:48:07;;;;;;;;;2.00;0.33;;;;;22.27;100.00;101856.88;4999384;28;46410;-74
2023/09/29 09:50:36;;;;;;;;;0.67;0.33;;;;;22.26;100.00;101847.00;5013083;28;45571;-75
2023/09/29 09:53:03;;;;;;;;;1.33;0.00;;;;;22.27;100.00;101848.81;5014482;28;45379;-72
2023/09/29 09:55:37;;;;;;;;;0.00;0.00;;;;;22.27;100.00;101843.44;5017174;28;45491;-74
2023/09/29 09:58:36;;;;;;;;;2.00;1.00;;;;;22.26;100.00;101853.28;5012537;28;46134;-74
2023/09/29 10:00:55;;;;;;;;;0.00;0.00;;;;;22.23;100.00;101848.84;5017255;28;45219;-72
2023/09/29 10:03:22;;;;;;;;;0.33;0.33;;;;;22.25;100.00;101848.81;5014992;28;45514;-72
2023/09/29 10:05:52;;;;;;;;;0.33;0.33;;;;;22.20;100.00;101864.16;5017379;28;45435;-73
2023/09/29 10:08:25;;;;;;;;;0.00;0.00;;;;;22.18;100.00;101874.09;5008427;28;46702;-73
2023/09/29 10:10:50;;;;;;;;;2.00;0.00;;;;;22.18;100.00;101888.41;5012545;28;45379;-75
2023/09/29 10:13:16;;;;;;;;;0.00;0.00;;;;;22.22;100.00;101881.19;5002087;28;63231;-75
2023/09/29 10:15:42;;;;;;;;;3.33;0.00;;;;;22.37;100.00;101888.94;5016533;28;45336;-72
2023/09/29 10:18:18;;;;;;;;;0.00;0.00;;;;;22.49;100.00;101885.97;5010238;28;45490;-74
2023/09/29 10:20:55;;;;;;;;;3.00;0.33;;;;;22.52;100.00;101885.00;5018221;28;45407;-75
2023/09/29 10:23:25;;;;;;;;;2.67;1.00;;;;;22.57;100.00;101895.69;5016407;28;45523;-72
2023/09/29 10:26:00;;;;;;;;;1.67;0.00;;;;;22.63;100.00;101892.84;5022050;28;45646;-73
2023/09/29 10:28:33;;;;;;;;;1.00;1.00;;;;;22.72;100.00;101893.53;5016351;28;46450;-72
2023/09/29 10:42:13;;;;;;;;;0.33;0.00;;;;;23.54;100.00;101857.44;5149792;27;45492;-76
2023/09/29 10:44:56;;;;;;;;;0.67;0.00;;;;;23.58;100.00;101860.94;5138816;27;45493;-75
2023/09/29 10:47:35;;;;;;;;;2.33;1.00;;;;;23.70;100.00;101849.84;5131087;27;45359;-77
2023/09/29 10:50:04;;;;;;;;;6.00;3.00;;;;;23.74;100.00;101863.22;5141293;27;47497;-75
2023/09/29 10:52:30;;;;;;;;;1.00;1.00;;;;;23.98;100.00;101849.97;5142858;27;45540;-77
2023/09/29 10:54:58;;;;;;;;;1.67;1.00;;;;;23.86;100.00;101853.00;5142448;27;45345;-77
2023/09/29 10:57:25;;;;;;;;;2.33;2.00;;;;;23.70;100.00;101852.53;5131232;27;45616;-76
2023/09/29 10:59:52;;;;;;;;;1.00;1.00;;;;;23.63;100.00;101857.22;5134257;27;45520;-72
2023/09/29 11:02:18;;;;;;;;;2.00;0.00;;;;;23.58;100.00;101869.91;5123492;27;45778;-73
2023/09/29 11:04:46;;;;;;;;;4.33;0.67;;;;;23.63;100.00;101870.72;5333954;22;66465;-72
2023/09/29 11:07:15;;;;;;;;;3.00;0.00;;;;;23.72;100.00;101874.97;5086201;27;45599;-73
2023/09/29 11:09:40;;;;;;;;;0.33;0.33;;;;;23.71;100.00;101871.41;5089097;27;45611;-74
2023/09/29 11:12:06;;;;;;;;;1.00;1.00;;;;;23.68;100.00;101874.16;5085536;27;46599;-73
2023/09/29 11:14:36;;;;;;;;;2.00;2.00;;;;;23.76;100.00;101879.38;5086783;27;45477;-73
2023/09/29 11:17:02;;;;;;;;;1.33;1.00;;;;;23.92;100.00;101874.44;5090211;27;45400;-73
2023/09/29 11:19:30;;;;;;;;;1.00;1.00;;;;;24.09;100.00;101871.25;5095276;27;45496;-74
2023/09/29 11:21:55;;;;;;;;;3.00;1.00;;;;;24.15;100.00;101866.56;5088504;27;45695;-72
2023/09/29 11:24:21;;;;;;;;;1.00;1.00;;;;;24.12;100.00;101869.34;5093945;27;71332;-71
2023/09/29 11:26:47;;;;;;;;;0.67;0.67;;;;;24.10;100.00;101879.31;5087974;27;62844;-72